sensor_id;sensor_type;location;lat;lon;timestamp;temperature;humidity
25112;DHT22;13092;51.996;4.458;2023-02-28T00:01:42;3.90;99.90
25112;DHT22;13092;51.996;4.458;2023-02-28T00:04:10;3.90;99.90
25112;DHT22;13092;51.996;4.458;2023-02-28T00:06:38;3.90;99.90
25112;DHT22;13092;51.996;4.458;2023-02-28T00:09:08;3.90;99.90
25112;DHT22;13092;51.996;4.458;2023-02-28T00:11:37;3.90;99.90
25112;DHT22;13092;51.996;4.458;2023-02-28T00:14:05;3.90;99.90
25112;DHT22;13092;51.996;4.458;2023-02-28T00:16:33;3.80;99.90
25112;DHT22;13092;51.996;4.458;2023-02-28T00:19:01;3.80;99.90
25112;DHT22;13092;51.996;4.458;2023-02-28T00:21:29;3.80;99.90
25112;DHT22;13092;51.996;4.458;2023-02-28T00:23:57;3.80;99.90
25112;DHT22;13092;51.996;4.458;2023-02-28T00:26:27;3.80;99.90
25112;DHT22;13092;51.996;4.458;2023-02-28T00:28:56;3.90;99.90
25112;DHT22;13092;51.996;4.458;2023-02-28T00:31:23;3.90;99.90
25112;DHT22;13092;51.996;4.458;2023-02-28T00:33:52;3.90;99.90
25112;DHT22;13092;51.996;4.458;2023-02-28T00:36:20;4.00;99.90
25112;DHT22;13092;51.996;4.458;2023-02-28T00:38:49;4.00;99.90
25112;DHT22;13092;51.996;4.458;2023-02-28T00:41:16;4.10;99.90
25112;DHT22;13092;51.996;4.458;2023-02-28T00:43:46;4.10;99.90
25112;DHT22;13092;51.996;4.458;2023-02-28T00:46:14;4.10;99.90
25112;DHT22;13092;51.996;4.458;2023-02-28T00:48:42;4.10;99.90
25112;DHT22;13092;51.996;4.458;2023-02-28T00:51:10;4.20;99.90
25112;DHT22;13092;51.996;4.458;2023-02-28T00:53:38;4.20;99.90
25112;DHT22;13092;51.996;4.458;2023-02-28T00:56:07;4.30;99.90
25112;DHT22;13092;51.996;4.458;2023-02-28T00:58:35;4.30;99.90
25112;DHT22;13092;51.996;4.458;2023-02-28T01:01:07;4.30;99.90
25112;DHT22;13092;51.996;4.458;2023-02-28T01:03:36;4.40;99.90
25112;DHT22;13092;51.996;4.458;2023-02-28T01:06:05;4.40;99.90
25112;DHT22;13092;51.996;4.458;2023-02-28T01:08:33;4.40;99.90
25112;DHT22;13092;51.996;4.458;2023-02-28T01:11:07;4.50;99.90
25112;DHT22;13092;51.996;4.458;2023-02-28T01:13:35;4.50;99.90
25112;DHT22;13092;51.996;4.458;2023-02-28T01:16:05;4.50;99.90
25112;DHT22;13092;51.996;4.458;2023-02-28T01:18:35;4.50;99.90
25112;DHT22;13092;51.996;4.458;2023-02-28T01:21:04;4.60;99.90
25112;DHT22;13092;51.996;4.458;2023-02-28T01:23:33;4.60;99.90
25112;DHT22;13092;51.996;4.458;2023-02-28T01:26:04;4.60;99.90
25112;DHT22;13092;51.996;4.458;2023-02-28T01:28:33;4.50;99.90
25112;DHT22;13092;51.996;4.458;2023-02-28T01:31:01;4.60;99.90
25112;DHT22;13092;51.996;4.458;2023-02-28T01:33:30;4.60;99.90
25112;DHT22;13092;51.996;4.458;2023-02-28T01:36:00;4.50;99.90
25112;DHT22;13092;51.996;4.458;2023-02-28T01:38:29;4.60;99.90
25112;DHT22;13092;51.996;4.458;2023-02-28T01:40:57;4.60;99.90
25112;DHT22;13092;51.996;4.458;2023-02-28T01:43:27;4.70;99.90
25112;DHT22;13092;51.996;4.458;2023-02-28T01:45:57;4.60;99.90
25112;DHT22;13092;51.996;4.458;2023-02-28T01:48:28;4.60;99.90
25112;DHT22;13092;51.996;4.458;2023-02-28T01:51:03;4.70;99.90
25112;DHT22;13092;51.996;4.458;2023-02-28T01:53:36;4.70;99.90
25112;DHT22;13092;51.996;4.458;2023-02-28T01:56:07;4.70;99.90
25112;DHT22;13092;51.996;4.458;2023-02-28T01:58:36;4.70;99.90
25112;DHT22;13092;51.996;4.458;2023-02-28T02:01:04;4.70;99.90
25112;DHT22;13092;51.996;4.458;2023-02-28T02:03:35;4.70;99.90
25112;DHT22;13092;51.996;4.458;2023-02-28T02:06:05;4.70;99.90
25112;DHT22;13092;51.996;4.458;2023-02-28T02:08:33;4.70;99.90
25112;DHT22;13092;51.996;4.458;2023-02-28T02:11:03;4.70;99.90
25112;DHT22;13092;51.996;4.458;2023-02-28T02:13:52;4.70;99.90
25112;DHT22;13092;51.996;4.458;2023-02-28T02:16:39;4.70;99.90
25112;DHT22;13092;51.996;4.458;2023-02-28T02:19:28;4.70;99.90
25112;DHT22;13092;51.996;4.458;2023-02-28T02:22:22;4.80;99.90
25112;DHT22;13092;51.996;4.458;2023-02-28T02:25:16;4.70;99.90
25112;DHT22;13092;51.996;4.458;2023-02-28T02:34:29;4.80;99.90
25112;DHT22;13092;51.996;4.458;2023-02-28T02:37:11;4.70;99.90
25112;DHT22;13092;51.996;4.458;2023-02-28T02:39:47;4.70;99.90
25112;DHT22;13092;51.996;4.458;2023-02-28T02:42:21;4.90;99.90
25112;DHT22;13092;51.996;4.458;2023-02-28T02:44:55;4.70;99.90
25112;DHT22;13092;51.996;4.458;2023-02-28T02:47:29;4.70;99.90
25112;DHT22;13092;51.996;4.458;2023-02-28T02:50:04;4.70;99.90
25112;DHT22;13092;51.996;4.458;2023-02-28T02:52:38;4.70;99.90
25112;DHT22;13092;51.996;4.458;2023-02-28T02:55:09;4.80;99.90
25112;DHT22;13092;51.996;4.458;2023-02-28T02:57:44;4.80;99.90
25112;DHT22;13092;51.996;4.458;2023-02-28T03:00:15;4.80;99.90
25112;DHT22;13092;51.996;4.458;2023-02-28T03:02:45;4.80;99.90
25112;DHT22;13092;51.996;4.458;2023-02-28T03:05:18;4.90;99.90
25112;DHT22;13092;51.996;4.458;2023-02-28T03:07:48;4.80;99.90
25112;DHT22;13092;51.996;4.458;2023-02-28T03:10:35;4.80;99.90
25112;DHT22;13092;51.996;4.458;2023-02-28T03:13:34;4.90;99.90
25112;DHT22;13092;51.996;4.458;2023-02-28T03:19:14;4.80;99.90
25112;DHT22;13092;51.996;4.458;2023-02-28T03:21:50;5.00;99.90
25112;DHT22;13092;51.996;4.458;2023-02-28T03:24:25;4.90;99.90
25112;DHT22;13092;51.996;4.458;2023-02-28T03:26:58;4.90;99.90
25112;DHT22;13092;51.996;4.458;2023-02-28T03:29:35;4.90;99.90
25112;DHT22;13092;51.996;4.458;2023-02-28T03:32:13;4.90;99.90
25112;DHT22;13092;51.996;4.458;2023-02-28T03:34:55;4.80;99.90
25112;DHT22;13092;51.996;4.458;2023-02-28T03:37:32;4.90;99.90
25112;DHT22;13092;51.996;4.458;2023-02-28T03:40:06;4.90;99.90
25112;DHT22;13092;51.996;4.458;2023-02-28T03:42:41;4.90;99.90
25112;DHT22;13092;51.996;4.458;2023-02-28T03:45:13;5.00;99.90
25112;DHT22;13092;51.996;4.458;2023-02-28T03:47:48;5.00;99.90
25112;DHT22;13092;51.996;4.458;2023-02-28T03:50:23;5.00;99.90
25112;DHT22;13092;51.996;4.458;2023-02-28T03:52:58;5.10;99.90
25112;DHT22;13092;51.996;4.458;2023-02-28T03:55:35;5.10;99.90
25112;DHT22;13092;51.996;4.458;2023-02-28T03:58:11;5.10;99.90
25112;DHT22;13092;51.996;4.458;2023-02-28T04:00:45;5.10;99.90
25112;DHT22;13092;51.996;4.458;2023-02-28T04:03:15;5.10;99.90
25112;DHT22;13092;51.996;4.458;2023-02-28T04:05:54;5.10;99.90
25112;DHT22;13092;51.996;4.458;2023-02-28T04:08:27;5.20;99.90
25112;DHT22;13092;51.996;4.458;2023-02-28T04:11:00;5.20;99.90
25112;DHT22;13092;51.996;4.458;2023-02-28T04:13:30;5.20;99.90
25112;DHT22;13092;51.996;4.458;2023-02-28T04:15:59;5.30;99.90
25112;DHT22;13092;51.996;4.458;2023-02-28T04:18:28;5.30;99.90
25112;DHT22;13092;51.996;4.458;2023-02-28T04:21:00;5.30;99.90
25112;DHT22;13092;51.996;4.458;2023-02-28T04:23:33;5.40;99.90
25112;DHT22;13092;51.996;4.458;2023-02-28T04:26:01;5.40;99.90
25112;DHT22;13092;51.996;4.458;2023-02-28T04:28:33;5.40;99.90
25112;DHT22;13092;51.996;4.458;2023-02-28T04:31:03;5.30;99.90
25112;DHT22;13092;51.996;4.458;2023-02-28T04:33:32;5.30;99.90
25112;DHT22;13092;51.996;4.458;2023-02-28T04:36:06;5.30;99.90
25112;DHT22;13092;51.996;4.458;2023-02-28T04:38:37;5.20;99.90
25112;DHT22;13092;51.996;4.458;2023-02-28T04:41:07;5.30;99.90
25112;DHT22;13092;51.996;4.458;2023-02-28T04:43:35;5.10;99.90
25112;DHT22;13092;51.996;4.458;2023-02-28T04:46:04;5.10;99.90
25112;DHT22;13092;51.996;4.458;2023-02-28T04:48:35;5.10;99.90
25112;DHT22;13092;51.996;4.458;2023-02-28T04:51:06;5.10;99.90
25112;DHT22;13092;51.996;4.458;2023-02-28T04:53:37;5.10;99.90
25112;DHT22;13092;51.996;4.458;2023-02-28T04:56:06;5.00;99.90
25112;DHT22;13092;51.996;4.458;2023-02-28T04:58:35;5.00;99.90
25112;DHT22;13092;51.996;4.458;2023-02-28T05:01:05;5.00;99.90
25112;DHT22;13092;51.996;4.458;2023-02-28T05:03:39;5.00;99.90
25112;DHT22;13092;51.996;4.458;2023-02-28T05:06:08;4.90;99.90
25112;DHT22;13092;51.996;4.458;2023-02-28T05:08:38;4.90;99.90
25112;DHT22;13092;51.996;4.458;2023-02-28T05:11:14;4.90;99.90
25112;DHT22;13092;51.996;4.458;2023-02-28T05:13:44;4.80;99.90
25112;DHT22;13092;51.996;4.458;2023-02-28T05:16:12;4.80;99.90
25112;DHT22;13092;51.996;4.458;2023-02-28T05:18:40;4.80;99.90
25112;DHT22;13092;51.996;4.458;2023-02-28T05:21:23;4.80;99.90
25112;DHT22;13092;51.996;4.458;2023-02-28T05:23:54;4.80;99.90
25112;DHT22;13092;51.996;4.458;2023-02-28T05:26:23;4.80;99.90
25112;DHT22;13092;51.996;4.458;2023-02-28T05:28:51;4.80;99.90
25112;DHT22;13092;51.996;4.458;2023-02-28T05:31:19;4.90;99.90
25112;DHT22;13092;51.996;4.458;2023-02-28T05:33:47;4.90;99.90
25112;DHT22;13092;51.996;4.458;2023-02-28T05:36:16;5.10;99.90
25112;DHT22;13092;51.996;4.458;2023-02-28T05:38:46;5.00;99.90
25112;DHT22;13092;51.996;4.458;2023-02-28T05:41:17;5.00;99.90
25112;DHT22;13092;51.996;4.458;2023-02-28T05:43:46;5.00;99.90
25112;DHT22;13092;51.996;4.458;2023-02-28T05:46:14;5.00;99.90
25112;DHT22;13092;51.996;4.458;2023-02-28T05:48:45;5.00;99.90
25112;DHT22;13092;51.996;4.458;2023-02-28T05:51:13;5.10;99.90
25112;DHT22;13092;51.996;4.458;2023-02-28T05:53:42;5.00;99.90
25112;DHT22;13092;51.996;4.458;2023-02-28T05:56:10;4.90;99.90
25112;DHT22;13092;51.996;4.458;2023-02-28T05:58:40;5.00;99.90
25112;DHT22;13092;51.996;4.458;2023-02-28T06:01:30;4.90;99.90
25112;DHT22;13092;51.996;4.458;2023-02-28T06:03:59;5.00;99.90
25112;DHT22;13092;51.996;4.458;2023-02-28T06:06:28;5.00;99.90
25112;DHT22;13092;51.996;4.458;2023-02-28T06:08:57;5.00;99.90
25112;DHT22;13092;51.996;4.458;2023-02-28T06:11:26;5.00;99.90
25112;DHT22;13092;51.996;4.458;2023-02-28T06:13:58;5.00;99.90
25112;DHT22;13092;51.996;4.458;2023-02-28T06:16:28;4.90;99.90
25112;DHT22;13092;51.996;4.458;2023-02-28T06:18:57;4.90;99.90
25112;DHT22;13092;51.996;4.458;2023-02-28T06:21:26;4.90;99.90
25112;DHT22;13092;51.996;4.458;2023-02-28T06:23:56;4.90;99.90
25112;DHT22;13092;51.996;4.458;2023-02-28T06:26:25;4.90;99.90
25112;DHT22;13092;51.996;4.458;2023-02-28T06:28:53;4.80;99.90
25112;DHT22;13092;51.996;4.458;2023-02-28T06:31:23;4.80;99.90
25112;DHT22;13092;51.996;4.458;2023-02-28T06:33:52;4.70;99.90
25112;DHT22;13092;51.996;4.458;2023-02-28T06:36:21;4.60;99.90
25112;DHT22;13092;51.996;4.458;2023-02-28T06:38:52;4.60;99.90
25112;DHT22;13092;51.996;4.458;2023-02-28T06:41:23;4.60;99.90
25112;DHT22;13092;51.996;4.458;2023-02-28T06:43:52;4.50;99.90
25112;DHT22;13092;51.996;4.458;2023-02-28T06:46:22;4.50;99.90
25112;DHT22;13092;51.996;4.458;2023-02-28T06:48:51;4.60;99.90
25112;DHT22;13092;51.996;4.458;2023-02-28T06:51:20;4.50;99.90
25112;DHT22;13092;51.996;4.458;2023-02-28T06:53:51;4.40;99.90
25112;DHT22;13092;51.996;4.458;2023-02-28T06:56:20;4.30;99.90
25112;DHT22;13092;51.996;4.458;2023-02-28T06:58:49;4.30;99.90
25112;DHT22;13092;51.996;4.458;2023-02-28T07:01:19;4.40;99.90
25112;DHT22;13092;51.996;4.458;2023-02-28T07:03:51;4.40;99.90
25112;DHT22;13092;51.996;4.458;2023-02-28T07:06:20;4.40;99.90
25112;DHT22;13092;51.996;4.458;2023-02-28T07:08:50;4.30;99.90
25112;DHT22;13092;51.996;4.458;2023-02-28T07:11:19;4.20;99.90
25112;DHT22;13092;51.996;4.458;2023-02-28T07:13:49;4.20;99.90
25112;DHT22;13092;51.996;4.458;2023-02-28T07:16:18;4.10;99.90
25112;DHT22;13092;51.996;4.458;2023-02-28T07:18:46;4.00;99.90
25112;DHT22;13092;51.996;4.458;2023-02-28T07:21:16;4.10;99.90
25112;DHT22;13092;51.996;4.458;2023-02-28T07:23:44;4.00;99.90
25112;DHT22;13092;51.996;4.458;2023-02-28T07:26:14;3.90;99.90
25112;DHT22;13092;51.996;4.458;2023-02-28T07:28:45;3.80;99.90
25112;DHT22;13092;51.996;4.458;2023-02-28T07:31:13;3.80;99.90
25112;DHT22;13092;51.996;4.458;2023-02-28T07:33:42;3.80;99.90
25112;DHT22;13092;51.996;4.458;2023-02-28T07:36:12;3.70;99.90
25112;DHT22;13092;51.996;4.458;2023-02-28T07:38:44;3.70;99.90
25112;DHT22;13092;51.996;4.458;2023-02-28T07:41:15;3.70;99.90
25112;DHT22;13092;51.996;4.458;2023-02-28T07:43:43;3.60;99.90
25112;DHT22;13092;51.996;4.458;2023-02-28T07:46:16;3.60;99.90
25112;DHT22;13092;51.996;4.458;2023-02-28T07:48:46;3.70;99.90
25112;DHT22;13092;51.996;4.458;2023-02-28T07:51:15;3.80;99.90
25112;DHT22;13092;51.996;4.458;2023-02-28T07:53:45;3.70;99.90
25112;DHT22;13092;51.996;4.458;2023-02-28T07:56:13;3.70;99.90
25112;DHT22;13092;51.996;4.458;2023-02-28T07:58:41;3.80;99.90
25112;DHT22;13092;51.996;4.458;2023-02-28T08:01:10;3.60;99.90
25112;DHT22;13092;51.996;4.458;2023-02-28T08:03:40;3.50;99.90
25112;DHT22;13092;51.996;4.458;2023-02-28T08:06:15;3.50;99.90
25112;DHT22;13092;51.996;4.458;2023-02-28T08:08:45;3.50;99.90
25112;DHT22;13092;51.996;4.458;2023-02-28T08:11:14;3.60;99.90
25112;DHT22;13092;51.996;4.458;2023-02-28T08:13:44;3.60;99.90
25112;DHT22;13092;51.996;4.458;2023-02-28T08:16:13;3.60;99.90
25112;DHT22;13092;51.996;4.458;2023-02-28T08:18:44;3.60;99.90
25112;DHT22;13092;51.996;4.458;2023-02-28T08:21:12;3.60;99.90
25112;DHT22;13092;51.996;4.458;2023-02-28T08:23:40;3.60;99.90
25112;DHT22;13092;51.996;4.458;2023-02-28T08:26:10;3.60;99.90
25112;DHT22;13092;51.996;4.458;2023-02-28T08:28:38;3.50;99.90
25112;DHT22;13092;51.996;4.458;2023-02-28T08:31:10;3.50;99.90
25112;DHT22;13092;51.996;4.458;2023-02-28T08:33:40;3.50;99.90
25112;DHT22;13092;51.996;4.458;2023-02-28T08:36:09;3.50;99.90
25112;DHT22;13092;51.996;4.458;2023-02-28T08:38:38;3.40;99.90
25112;DHT22;13092;51.996;4.458;2023-02-28T08:41:09;3.50;99.90
25112;DHT22;13092;51.996;4.458;2023-02-28T08:43:40;3.60;99.90
25112;DHT22;13092;51.996;4.458;2023-02-28T08:46:11;3.60;99.90
25112;DHT22;13092;51.996;4.458;2023-02-28T08:48:40;3.60;99.90
25112;DHT22;13092;51.996;4.458;2023-02-28T08:51:11;3.70;99.90
25112;DHT22;13092;51.996;4.458;2023-02-28T08:53:40;3.80;99.90
25112;DHT22;13092;51.996;4.458;2023-02-28T08:56:10;3.70;99.90
25112;DHT22;13092;51.996;4.458;2023-02-28T08:58:40;3.70;99.90
25112;DHT22;13092;51.996;4.458;2023-02-28T09:01:09;3.50;99.90
25112;DHT22;13092;51.996;4.458;2023-02-28T09:03:39;3.60;99.90
25112;DHT22;13092;51.996;4.458;2023-02-28T09:06:09;3.60;99.90
25112;DHT22;13092;51.996;4.458;2023-02-28T09:08:38;3.60;99.90
25112;DHT22;13092;51.996;4.458;2023-02-28T09:11:07;3.50;99.90
25112;DHT22;13092;51.996;4.458;2023-02-28T09:13:36;3.60;99.90
25112;DHT22;13092;51.996;4.458;2023-02-28T09:16:09;3.50;99.90
25112;DHT22;13092;51.996;4.458;2023-02-28T09:18:39;3.70;99.90
25112;DHT22;13092;51.996;4.458;2023-02-28T09:21:09;3.80;99.90
25112;DHT22;13092;51.996;4.458;2023-02-28T09:23:38;3.80;99.90
25112;DHT22;13092;51.996;4.458;2023-02-28T09:26:07;3.80;99.90
25112;DHT22;13092;51.996;4.458;2023-02-28T09:28:35;3.90;99.90
25112;DHT22;13092;51.996;4.458;2023-02-28T09:31:05;3.90;99.90
25112;DHT22;13092;51.996;4.458;2023-02-28T09:33:33;4.00;99.90
25112;DHT22;13092;51.996;4.458;2023-02-28T09:36:03;4.00;99.90
25112;DHT22;13092;51.996;4.458;2023-02-28T09:38:32;4.00;99.90
25112;DHT22;13092;51.996;4.458;2023-02-28T09:41:03;4.00;99.90
25112;DHT22;13092;51.996;4.458;2023-02-28T09:43:35;4.10;99.90
25112;DHT22;13092;51.996;4.458;2023-02-28T09:46:11;4.10;99.90
25112;DHT22;13092;51.996;4.458;2023-02-28T09:48:43;4.10;99.90
25112;DHT22;13092;51.996;4.458;2023-02-28T09:51:23;4.10;99.90
25112;DHT22;13092;51.996;4.458;2023-02-28T09:53:55;4.20;99.90
25112;DHT22;13092;51.996;4.458;2023-02-28T09:56:32;4.20;99.90
25112;DHT22;13092;51.996;4.458;2023-02-28T09:59:04;4.30;99.90
25112;DHT22;13092;51.996;4.458;2023-02-28T10:01:40;4.40;99.90
25112;DHT22;13092;51.996;4.458;2023-02-28T10:04:16;4.40;99.90
25112;DHT22;13092;51.996;4.458;2023-02-28T10:06:53;4.50;99.90
25112;DHT22;13092;51.996;4.458;2023-02-28T10:09:24;4.50;99.90
25112;DHT22;13092;51.996;4.458;2023-02-28T10:12:05;4.50;99.90
25112;DHT22;13092;51.996;4.458;2023-02-28T10:14:34;4.50;99.90
25112;DHT22;13092;51.996;4.458;2023-02-28T10:17:09;4.40;99.90
25112;DHT22;13092;51.996;4.458;2023-02-28T10:19:44;4.50;99.90
25112;DHT22;13092;51.996;4.458;2023-02-28T10:22:18;4.60;99.90
25112;DHT22;13092;51.996;4.458;2023-02-28T10:24:49;4.60;99.90
25112;DHT22;13092;51.996;4.458;2023-02-28T10:27:20;4.60;99.90
25112;DHT22;13092;51.996;4.458;2023-02-28T10:29:50;4.70;99.90
25112;DHT22;13092;51.996;4.458;2023-02-28T10:32:22;4.70;99.90
25112;DHT22;13092;51.996;4.458;2023-02-28T10:34:52;4.80;99.90
25112;DHT22;13092;51.996;4.458;2023-02-28T10:37:22;4.80;99.90
25112;DHT22;13092;51.996;4.458;2023-02-28T10:39:52;4.80;99.90
25112;DHT22;13092;51.996;4.458;2023-02-28T10:42:25;4.90;99.90
25112;DHT22;13092;51.996;4.458;2023-02-28T10:45:09;4.90;99.90
25112;DHT22;13092;51.996;4.458;2023-02-28T10:47:49;5.10;99.90
25112;DHT22;13092;51.996;4.458;2023-02-28T10:50:29;5.00;99.90
25112;DHT22;13092;51.996;4.458;2023-02-28T10:53:10;5.00;99.90
25112;DHT22;13092;51.996;4.458;2023-02-28T10:55:43;5.20;99.90
25112;DHT22;13092;51.996;4.458;2023-02-28T10:58:21;5.00;99.90
25112;DHT22;13092;51.996;4.458;2023-02-28T11:00:51;5.10;99.90
25112;DHT22;13092;51.996;4.458;2023-02-28T11:03:29;5.20;99.90
25112;DHT22;13092;51.996;4.458;2023-02-28T11:05:58;5.40;99.90
25112;DHT22;13092;51.996;4.458;2023-02-28T11:08:27;5.40;99.90
25112;DHT22;13092;51.996;4.458;2023-02-28T11:10:57;5.60;99.90
25112;DHT22;13092;51.996;4.458;2023-02-28T11:13:28;5.60;99.90
25112;DHT22;13092;51.996;4.458;2023-02-28T11:16:00;5.60;99.90
25112;DHT22;13092;51.996;4.458;2023-02-28T11:18:36;5.60;99.90
25112;DHT22;13092;51.996;4.458;2023-02-28T11:21:06;5.40;99.90
25112;DHT22;13092;51.996;4.458;2023-02-28T11:23:36;5.50;99.90
25112;DHT22;13092;51.996;4.458;2023-02-28T11:26:06;5.50;99.90
25112;DHT22;13092;51.996;4.458;2023-02-28T11:28:39;5.60;99.90
25112;DHT22;13092;51.996;4.458;2023-02-28T11:31:25;5.70;99.90
25112;DHT22;13092;51.996;4.458;2023-02-28T11:33:59;5.90;99.90
25112;DHT22;13092;51.996;4.458;2023-02-28T11:36:29;5.80;99.90
25112;DHT22;13092;51.996;4.458;2023-02-28T11:39:04;5.90;99.90
25112;DHT22;13092;51.996;4.458;2023-02-28T11:41:58;5.90;99.90
25112;DHT22;13092;51.996;4.458;2023-02-28T11:44:41;5.90;99.90
25112;DHT22;13092;51.996;4.458;2023-02-28T11:47:18;5.90;99.90
25112;DHT22;13092;51.996;4.458;2023-02-28T11:50:03;5.90;99.90
25112;DHT22;13092;51.996;4.458;2023-02-28T11:52:39;6.10;99.90
25112;DHT22;13092;51.996;4.458;2023-02-28T11:55:17;6.10;99.90
25112;DHT22;13092;51.996;4.458;2023-02-28T11:58:08;6.20;99.90
25112;DHT22;13092;51.996;4.458;2023-02-28T12:00:50;6.20;99.90
25112;DHT22;13092;51.996;4.458;2023-02-28T12:03:28;6.30;99.90
25112;DHT22;13092;51.996;4.458;2023-02-28T12:06:09;6.40;99.90
25112;DHT22;13092;51.996;4.458;2023-02-28T12:08:49;6.30;99.90
25112;DHT22;13092;51.996;4.458;2023-02-28T12:11:27;6.40;99.90
25112;DHT22;13092;51.996;4.458;2023-02-28T12:14:24;6.40;99.90
25112;DHT22;13092;51.996;4.458;2023-02-28T12:17:03;6.50;99.90
25112;DHT22;13092;51.996;4.458;2023-02-28T12:19:42;6.80;99.90
25112;DHT22;13092;51.996;4.458;2023-02-28T12:22:29;6.70;99.90
25112;DHT22;13092;51.996;4.458;2023-02-28T12:25:25;6.70;99.90
25112;DHT22;13092;51.996;4.458;2023-02-28T12:28:00;6.90;99.90
25112;DHT22;13092;51.996;4.458;2023-02-28T12:30:32;6.70;99.90
25112;DHT22;13092;51.996;4.458;2023-02-28T12:33:03;6.70;99.90
25112;DHT22;13092;51.996;4.458;2023-02-28T12:35:35;6.60;99.90
25112;DHT22;13092;51.996;4.458;2023-02-28T12:38:12;6.60;99.90
25112;DHT22;13092;51.996;4.458;2023-02-28T12:40:44;6.60;99.90
25112;DHT22;13092;51.996;4.458;2023-02-28T12:43:16;6.60;99.90
25112;DHT22;13092;51.996;4.458;2023-02-28T12:45:46;6.80;99.90
25112;DHT22;13092;51.996;4.458;2023-02-28T12:48:21;6.90;99.90
25112;DHT22;13092;51.996;4.458;2023-02-28T12:50:52;7.00;99.90
25112;DHT22;13092;51.996;4.458;2023-02-28T12:53:27;7.10;99.90
25112;DHT22;13092;51.996;4.458;2023-02-28T12:56:09;7.20;99.90
25112;DHT22;13092;51.996;4.458;2023-02-28T12:58:44;7.20;99.90
25112;DHT22;13092;51.996;4.458;2023-02-28T13:01:39;7.20;99.90
25112;DHT22;13092;51.996;4.458;2023-02-28T13:07:52;7.30;99.90
25112;DHT22;13092;51.996;4.458;2023-02-28T13:10:24;7.30;99.90
25112;DHT22;13092;51.996;4.458;2023-02-28T13:12:54;7.40;99.90
25112;DHT22;13092;51.996;4.458;2023-02-28T13:15:26;7.40;99.90
25112;DHT22;13092;51.996;4.458;2023-02-28T13:17:58;7.40;99.90
25112;DHT22;13092;51.996;4.458;2023-02-28T13:20:35;7.30;99.90
25112;DHT22;13092;51.996;4.458;2023-02-28T13:23:14;7.20;99.90
25112;DHT22;13092;51.996;4.458;2023-02-28T13:25:59;7.10;99.90
25112;DHT22;13092;51.996;4.458;2023-02-28T13:29:02;7.20;99.90
25112;DHT22;13092;51.996;4.458;2023-02-28T13:31:33;7.30;99.90
25112;DHT22;13092;51.996;4.458;2023-02-28T13:34:16;7.20;99.90
25112;DHT22;13092;51.996;4.458;2023-02-28T13:36:45;7.30;99.90
25112;DHT22;13092;51.996;4.458;2023-02-28T13:39:46;7.20;99.90
25112;DHT22;13092;51.996;4.458;2023-02-28T13:42:32;7.20;99.90
25112;DHT22;13092;51.996;4.458;2023-02-28T13:45:24;7.00;99.90
25112;DHT22;13092;51.996;4.458;2023-02-28T13:47:55;7.30;99.90
25112;DHT22;13092;51.996;4.458;2023-02-28T13:50:28;7.30;99.90
25112;DHT22;13092;51.996;4.458;2023-02-28T13:53:32;7.30;99.90
25112;DHT22;13092;51.996;4.458;2023-02-28T13:56:07;7.30;99.90
25112;DHT22;13092;51.996;4.458;2023-02-28T13:58:46;7.30;99.90
25112;DHT22;13092;51.996;4.458;2023-02-28T14:01:27;7.20;99.90
25112;DHT22;13092;51.996;4.458;2023-02-28T14:04:15;7.20;99.90
25112;DHT22;13092;51.996;4.458;2023-02-28T14:06:50;7.20;99.90
25112;DHT22;13092;51.996;4.458;2023-02-28T14:09:24;7.20;99.90
25112;DHT22;13092;51.996;4.458;2023-02-28T14:11:55;7.20;99.90
25112;DHT22;13092;51.996;4.458;2023-02-28T14:17:26;7.30;99.90
25112;DHT22;13092;51.996;4.458;2023-02-28T14:19:54;7.30;99.90
25112;DHT22;13092;51.996;4.458;2023-02-28T14:22:49;7.30;99.90
25112;DHT22;13092;51.996;4.458;2023-02-28T14:25:24;7.50;99.90
25112;DHT22;13092;51.996;4.458;2023-02-28T14:28:08;7.30;99.90
25112;DHT22;13092;51.996;4.458;2023-02-28T14:30:56;7.40;99.90
25112;DHT22;13092;51.996;4.458;2023-02-28T14:33:40;7.40;99.90
25112;DHT22;13092;51.996;4.458;2023-02-28T14:36:14;7.40;99.90
25112;DHT22;13092;51.996;4.458;2023-02-28T14:38:46;7.50;99.90
25112;DHT22;13092;51.996;4.458;2023-02-28T14:41:19;7.40;99.90
25112;DHT22;13092;51.996;4.458;2023-02-28T14:43:50;7.40;99.90
25112;DHT22;13092;51.996;4.458;2023-02-28T14:46:20;7.60;99.90
25112;DHT22;13092;51.996;4.458;2023-02-28T14:48:50;7.60;99.90
25112;DHT22;13092;51.996;4.458;2023-02-28T14:51:19;7.40;99.90
25112;DHT22;13092;51.996;4.458;2023-02-28T14:53:51;7.50;99.90
25112;DHT22;13092;51.996;4.458;2023-02-28T14:56:24;7.50;99.90
25112;DHT22;13092;51.996;4.458;2023-02-28T14:58:55;7.60;99.90
25112;DHT22;13092;51.996;4.458;2023-02-28T15:01:24;7.50;99.90
25112;DHT22;13092;51.996;4.458;2023-02-28T15:04:02;7.70;99.90
25112;DHT22;13092;51.996;4.458;2023-02-28T15:06:31;7.80;99.90
25112;DHT22;13092;51.996;4.458;2023-02-28T15:09:15;7.70;99.90
25112;DHT22;13092;51.996;4.458;2023-02-28T15:11:47;7.70;99.90
25112;DHT22;13092;51.996;4.458;2023-02-28T15:14:20;7.70;99.90
25112;DHT22;13092;51.996;4.458;2023-02-28T15:16:52;7.70;99.90
25112;DHT22;13092;51.996;4.458;2023-02-28T15:19:26;7.70;99.90
25112;DHT22;13092;51.996;4.458;2023-02-28T15:21:59;7.70;99.90
25112;DHT22;13092;51.996;4.458;2023-02-28T15:24:35;7.70;99.90
25112;DHT22;13092;51.996;4.458;2023-02-28T15:27:10;7.60;99.90
25112;DHT22;13092;51.996;4.458;2023-02-28T15:29:44;7.70;99.90
25112;DHT22;13092;51.996;4.458;2023-02-28T15:32:24;7.70;99.90
25112;DHT22;13092;51.996;4.458;2023-02-28T15:34:55;7.70;99.90
25112;DHT22;13092;51.996;4.458;2023-02-28T15:37:28;7.80;99.90
25112;DHT22;13092;51.996;4.458;2023-02-28T15:40:07;7.80;99.90
25112;DHT22;13092;51.996;4.458;2023-02-28T15:42:35;7.90;99.90
25112;DHT22;13092;51.996;4.458;2023-02-28T15:45:04;8.10;99.90
25112;DHT22;13092;51.996;4.458;2023-02-28T15:47:32;8.20;99.90
25112;DHT22;13092;51.996;4.458;2023-02-28T15:50:12;8.20;99.90
25112;DHT22;13092;51.996;4.458;2023-02-28T15:52:43;8.20;99.90
25112;DHT22;13092;51.996;4.458;2023-02-28T15:55:17;8.40;99.90
25112;DHT22;13092;51.996;4.458;2023-02-28T15:57:48;8.10;99.90
25112;DHT22;13092;51.996;4.458;2023-02-28T16:00:21;8.10;99.90
25112;DHT22;13092;51.996;4.458;2023-02-28T16:02:50;7.90;99.90
25112;DHT22;13092;51.996;4.458;2023-02-28T16:05:23;7.70;99.90
25112;DHT22;13092;51.996;4.458;2023-02-28T16:07:58;7.70;99.90
25112;DHT22;13092;51.996;4.458;2023-02-28T16:10:28;7.70;99.90
25112;DHT22;13092;51.996;4.458;2023-02-28T16:12:58;7.80;99.90
25112;DHT22;13092;51.996;4.458;2023-02-28T16:15:28;7.60;99.90
25112;DHT22;13092;51.996;4.458;2023-02-28T16:17:57;7.50;99.90
25112;DHT22;13092;51.996;4.458;2023-02-28T16:20:29;7.40;99.90
25112;DHT22;13092;51.996;4.458;2023-02-28T16:22:57;7.40;99.90
25112;DHT22;13092;51.996;4.458;2023-02-28T16:25:34;7.40;99.90
25112;DHT22;13092;51.996;4.458;2023-02-28T16:28:03;7.40;99.90
25112;DHT22;13092;51.996;4.458;2023-02-28T16:30:32;7.30;99.90
25112;DHT22;13092;51.996;4.458;2023-02-28T16:33:00;7.20;99.90
25112;DHT22;13092;51.996;4.458;2023-02-28T16:35:33;7.10;99.90
25112;DHT22;13092;51.996;4.458;2023-02-28T16:38:01;7.00;99.90